< < Back
Terminal Aerodrome Forecast


Current Version              Previous Versions:   1  2  3  4  5  6  7  8  9  

Terminal Aerodrome Forecast

547
FTUS42 KJAX 030540
TAFGNV
TAF
KGNV 030540Z 0306/0406 25002KT P6SM BKN060 OVC200
     FM030900 23002KT 6SM BR SCT010
      TEMPO 0309/0312 4SM BR SCT006 BKN010
     FM031400 23010KT P6SM SCT035 BKN050
     FM031800 24012KT P6SM VCTS BKN040CB
     FM040000 23005KT P6SM VCSH SCT040 BKN200=

Latest METAR

022
SAUS70 KWBC 030900 RRA
MTRGNV
METAR KGNV 030853Z AUTO 21004KT 10SM BKN013 22/20 A2993 RMK AO2 SLP133
T02170200 56008


USA.gov is the U.S. government's official web portal to all federal, state and local government web resources and services.